Time;durP1;ratioP1;P1;durP2;ratioP2;P2;SDS_P1;SDS_P2;PMS_P1;PMS_P2;Temp;Humidity;BMP_temperature;BMP_pressure;BME280_temperature;BME280_humidity;BME280_pressure;Samples;Min_cycle;Max_cycle;Signal;HPM_P1;HPM_P2
2022/03/24 00:02:39;;;;;;;42.63;27.77;;;;;;;1.46;77.59;102782.94;10478718;28;20035;-77
2022/03/24 00:07:41;;;;;;;49.65;29.63;;;;;;;1.33;78.65;102774.53;10460892;28;20044;-77
2022/03/24 00:12:41;;;;;;;48.00;28.33;;;;;;;1.24;79.35;102780.47;10461167;28;20036;-77
2022/03/24 00:17:42;;;;;;;59.13;31.20;;;;;;;1.41;80.16;102777.25;10493883;28;20627;-77
2022/03/24 00:22:42;;;;;;;46.15;26.42;;;;;;;1.28;80.43;102781.72;10494773;28;20048;-77
2022/03/24 00:27:43;;;;;;;52.78;31.50;;;;;;;1.21;80.86;102776.59;10476806;28;20480;-77
2022/03/24 00:32:43;;;;;;;51.97;32.75;;;;;;;1.42;80.63;102765.28;10461566;28;20105;-77
2022/03/24 00:37:44;;;;;;;50.88;31.42;;;;;;;1.28;79.16;102771.41;10493550;28;20500;-77
2022/03/24 00:42:45;;;;;;;49.20;30.65;;;;;;;1.13;78.98;102766.31;10496402;28;20029;-77
2022/03/24 00:47:46;;;;;;;49.93;32.40;;;;;;;0.97;78.57;102755.88;10458956;28;20029;-77
2022/03/24 00:52:46;;;;;;;49.83;30.42;;;;;;;1.15;79.29;102758.75;10495084;28;20040;-77
2022/03/24 00:57:49;;;;;;;50.13;30.48;;;;;;;1.10;77.41;102755.63;10493983;28;20561;-77
2022/03/24 01:02:51;;;;;;;48.72;30.17;;;;;;;1.13;77.59;102747.34;10464937;28;20086;-77
2022/03/24 01:07:52;;;;;;;48.30;29.63;;;;;;;1.09;78.30;102758.03;10484445;28;20036;-77
2022/03/24 01:12:52;;;;;;;52.22;28.85;;;;;;;0.92;78.41;102756.06;10500831;28;20502;-77
2022/03/24 01:17:53;;;;;;;53.47;32.67;;;;;;;0.93;79.07;102747.59;10483078;28;20025;-77
2022/03/24 01:22:54;;;;;;;57.60;36.08;;;;;;;0.88;77.98;102754.81;10482087;28;20020;-77
2022/03/24 01:27:54;;;;;;;54.67;33.30;;;;;;;0.77;77.99;102750.06;10481997;28;20392;-77
2022/03/24 01:32:55;;;;;;;49.10;29.30;;;;;;;0.65;78.07;102747.88;10483100;28;20059;-77
2022/03/24 01:37:55;;;;;;;54.10;32.13;;;;;;;0.53;78.34;102751.56;10481911;28;20115;-77
2022/03/24 01:42:56;;;;;;;47.30;32.65;;;;;;;0.41;79.20;102746.81;10483740;28;20068;-77
2022/03/24 01:47:56;;;;;;;46.70;28.55;;;;;;;0.35;79.36;102745.13;10500396;28;20175;-77
2022/03/24 01:52:57;;;;;;;57.92;36.17;;;;;;;0.24;80.85;102746.44;10501799;28;20055;-77
2022/03/24 01:57:57;;;;;;;52.55;32.78;;;;;;;0.39;81.59;102739.63;10498942;28;20032;-77
2022/03/24 02:03:02;;;;;;;51.72;34.63;;;;;;;0.26;80.88;102738.16;10498338;28;20020;-77
2022/03/24 02:08:05;;;;;;;52.90;34.88;;;;;;;0.18;80.38;102728.59;10479699;28;20476;-77
2022/03/24 02:13:08;;;;;;;52.78;33.03;;;;;;;0.03;80.38;102739.63;10464498;28;20036;-77
2022/03/24 02:18:12;;;;;;;55.10;32.80;;;;;;;0.15;81.37;102730.81;10482162;28;20031;-77
2022/03/24 02:23:15;;;;;;;58.28;37.95;;;;;;;0.24;79.24;102736.16;10480905;28;20100;-77
2022/03/24 02:28:15;;;;;;;63.30;37.53;;;;;;;0.11;79.29;102731.16;10482427;28;20032;-77
2022/03/24 02:33:22;;;;;;;72.25;38.42;;;;;;;0.16;79.06;102742.94;10498042;28;20429;-77
2022/03/24 02:38:23;;;;;;;65.35;37.80;;;;;;;-0.08;78.79;102733.22;10479341;28;20028;-77
2022/03/24 02:43:24;;;;;;;65.95;39.20;;;;;;;-0.34;80.21;102728.41;10478683;28;20112;-77
2022/03/24 02:48:25;;;;;;;68.38;38.47;;;;;;;-0.37;80.08;102740.91;10463637;28;20119;-77
2022/03/24 02:53:25;;;;;;;65.07;37.25;;;;;;;-0.37;79.49;102733.19;10497915;28;20138;-77
2022/03/24 02:58:26;;;;;;;77.47;41.22;;;;;;;-0.79;81.19;102730.66;10497471;28;20480;-77
2022/03/24 03:03:26;;;;;;;64.63;40.33;;;;;;;-0.77;81.98;102742.06;10481241;28;20067;-77
2022/03/24 03:08:28;;;;;;;64.78;38.97;;;;;;;-0.79;82.08;102729.03;10478372;28;20032;-77
2022/03/24 03:13:28;;;;;;;69.43;40.23;;;;;;;-0.92;82.02;102734.28;10477794;28;20113;-77
2022/03/24 03:18:29;;;;;;;66.45;39.90;;;;;;;-0.87;82.57;102731.38;10477925;28;20063;-77
2022/03/24 03:23:29;;;;;;;66.20;40.22;;;;;;;-0.73;83.30;102731.41;10460533;28;20475;-77
2022/03/24 03:28:30;;;;;;;61.58;40.28;;;;;;;-0.79;83.04;102736.75;10478368;28;20036;-77
2022/03/24 03:33:30;;;;;;;68.35;40.50;;;;;;;-0.81;83.66;102732.13;10478839;28;20488;-77
2022/03/24 03:38:32;;;;;;;67.72;41.78;;;;;;;-0.77;83.91;102748.13;10495715;28;20036;-77
2022/03/24 03:43:33;;;;;;;65.68;39.03;;;;;;;-0.78;83.72;102751.44;10477057;28;20490;-77
2022/03/24 03:48:37;;;;;;;77.18;41.63;;;;;;;-0.84;83.92;102739.47;10460154;28;20037;-77
2022/03/24 03:53:38;;;;;;;64.68;40.17;;;;;;;-0.88;84.03;102758.75;10479538;28;20086;-75
2022/03/24 03:58:39;;;;;;;75.90;42.65;;;;;;;-0.88;83.87;102748.47;10460023;28;20115;-77
2022/03/24 04:03:39;;;;;;;78.20;47.15;;;;;;;-1.11;83.80;102746.53;10461691;28;20087;-77
2022/03/24 04:08:42;;;;;;;83.93;44.00;;;;;;;-1.08;84.25;102749.47;10477769;28;20025;-77
2022/03/24 04:13:42;;;;;;;62.95;38.22;;;;;;;-1.06;83.78;102744.50;10476581;28;20025;-77
2022/03/24 04:18:46;;;;;;;70.13;45.67;;;;;;;-1.12;84.60;102742.09;10459901;28;20036;-77
2022/03/24 04:23:47;;;;;;;79.45;46.40;;;;;;;-1.10;84.49;102734.56;10488735;28;20361;-77
2022/03/24 04:28:54;;;;;;;75.47;43.35;;;;;;;-1.25;84.06;102739.63;10448428;28;20059;-77
2022/03/24 04:33:57;;;;;;;80.20;45.97;;;;;;;-1.33;84.55;102742.91;10476300;28;20059;-77
2022/03/24 04:39:07;;;;;;;75.03;41.72;;;;;;;-1.30;84.53;102750.09;10498910;28;20063;-77
2022/03/24 04:44:09;;;;;;;69.20;43.83;;;;;;;-1.35;84.79;102744.34;10501147;28;20036;-77
2022/03/24 04:49:10;;;;;;;74.32;44.03;;;;;;;-1.51;84.37;102755.25;10402041;28;20071;-77
2022/03/24 04:54:15;;;;;;;79.83;46.80;;;;;;;-1.35;85.58;102749.50;10419131;28;20481;-76
2022/03/24 04:59:16;;;;;;;73.07;46.22;;;;;;;-1.48;85.55;102739.34;10417868;28;20199;-77
2022/03/24 05:04:21;;;;;;;82.72;46.67;;;;;;;-1.53;86.17;102748.09;10417510;28;20026;-76
2022/03/24 05:09:23;;;;;;;85.97;52.20;;;;;;;-1.45;86.33;102750.00;10401718;28;20072;-77
2022/03/24 05:14:26;;;;;;;82.05;48.47;;;;;;;-1.46;86.23;102744.66;10413412;28;20038;-78
2022/03/24 05:19:48;;;;;;;79.07;45.03;;;;;;;-1.37;85.10;102743.25;10415480;28;20045;-77
2022/03/24 05:24:59;;;;;;;83.75;51.35;;;;;;;-1.48;85.08;102745.38;10416049;28;20026;-75
2022/03/24 05:30:07;;;;;;;89.70;55.72;;;;;;;-1.66;85.42;102740.47;10374433;28;20061;-76
2022/03/24 05:35:13;;;;;;;82.60;54.78;;;;;;;-1.68;85.42;102747.06;10406415;28;20063;-76
2022/03/24 05:40:14;;;;;;;93.15;53.85;;;;;;;-1.72;85.62;102748.34;10417925;28;20034;-76
2022/03/24 05:45:20;;;;;;;89.93;55.67;;;;;;;-1.64;86.30;102746.72;10433102;28;20048;-76
2022/03/24 05:50:24;;;;;;;93.80;56.42;;;;;;;-1.46;86.48;102745.59;10498771;28;20037;-76
2022/03/24 05:55:37;;;;;;;105.35;54.88;;;;;;;-1.39;86.58;102745.63;10467519;28;20136;-76
2022/03/24 06:00:41;;;;;;;98.38;62.58;;;;;;;-1.15;86.13;102749.44;10464539;28;20032;-76
2022/03/24 06:05:48;;;;;;;62.75;39.22;;;;;;;-0.83;83.83;102761.88;10498956;28;20060;-77
2022/03/24 06:10:51;;;;;;;83.10;43.35;;;;;;;-0.96;82.77;102757.78;10462888;28;20098;-76
2022/03/24 06:16:01;;;;;;;79.47;46.05;;;;;;;-0.78;83.72;102772.00;10463685;28;20029;-76
2022/03/24 06:21:07;;;;;;;83.40;47.25;;;;;;;0.08;83.37;102764.28;10481642;28;20033;-77
2022/03/24 06:26:20;;;;;;;71.18;41.85;;;;;;;2.01;78.73;102761.56;10497794;28;20070;-77
2022/03/24 06:31:26;;;;;;;62.25;39.95;;;;;;;3.14;70.46;102753.22;10428734;28;20080;-80
2022/03/24 06:36:29;;;;;;;64.30;36.33;;;;;;;4.05;66.46;102750.66;10444207;28;20020;-77
2022/03/24 06:41:34;;;;;;;58.53;34.83;;;;;;;5.09;63.64;102750.75;10479039;28;20040;-76
2022/03/24 06:46:42;;;;;;;51.47;33.33;;;;;;;5.80;60.21;102754.22;10496049;28;20131;-78
2022/03/24 06:51:44;;;;;;;57.90;37.65;;;;;;;7.05;57.22;102752.13;10476777;28;20468;-78
2022/03/24 06:56:49;;;;;;;57.55;35.03;;;;;;;7.53;54.70;102755.53;10462849;28;20048;-77
2022/03/24 07:02:02;;;;;;;52.83;36.90;;;;;;;8.64;53.98;102751.31;10461276;28;20044;-76
2022/03/24 07:07:09;;;;;;;58.50;37.80;;;;;;;10.65;49.39;102752.72;10461766;28;20460;-75
2022/03/24 07:12:11;;;;;;;54.85;35.15;;;;;;;10.40;48.58;102749.13;10477756;28;20033;-77
2022/03/24 07:17:17;;;;;;;51.60;32.30;;;;;;;12.14;47.00;102745.38;10478635;28;20021;-76
2022/03/24 07:22:30;;;;;;;76.20;37.40;;;;;;;12.04;47.76;102755.22;10477257;28;20040;-75
2022/03/24 07:27:35;;;;;;;128.52;46.50;;;;;;;13.45;44.85;102756.06;10477201;28;20380;-76
2022/03/24 07:32:37;;;;;;;132.05;43.38;;;;;;;14.14;44.27;102752.53;10494264;28;20032;-79
2022/03/24 07:37:38;;;;;;;107.65;45.40;;;;;;;15.32;41.23;102763.22;10461105;28;20059;-79
2022/03/24 07:42:42;;;;;;;95.57;41.45;;;;;;;15.49;40.50;102758.91;10473868;28;20012;-77
2022/03/24 07:48:08;;;;;;;102.03;45.72;;;;;;;15.73;42.31;102755.84;10494178;28;20400;-76
2022/03/24 07:53:16;;;;;;;82.80;41.47;;;;;;;15.35;43.90;102768.66;10495614;28;20105;-76
2022/03/24 07:58:21;;;;;;;83.45;40.88;;;;;;;15.56;44.08;102761.06;10492936;28;20319;-77
2022/03/24 08:03:29;;;;;;;64.55;40.50;;;;;;;15.59;44.24;102765.63;10436866;28;20531;-76
2022/03/24 08:08:37;;;;;;;49.80;34.97;;;;;;;16.21;42.58;102762.91;10442475;28;20035;-76
2022/03/24 08:13:42;;;;;;;59.22;35.60;;;;;;;16.68;38.86;102768.94;10494530;28;20040;-76
2022/03/24 08:18:58;;;;;;;;;;;;;;;;;;;;;
2022/03/24 08:24:01;;;;;;;63.90;39.15;;;;;;;17.63;37.73;102764.06;10478148;28;20033;-75
2022/03/24 08:29:06;;;;;;;59.13;38.72;;;;;;;17.78;35.42;102765.63;10496299;28;20021;-74
2022/03/24 08:34:14;;;;;;;58.65;36.38;;;;;;;16.82;38.46;102769.66;10457462;28;20041;-74
2022/03/24 08:39:17;;;;;;;52.65;34.03;;;;;;;16.10;37.84;102772.88;10494055;28;20064;-74
2022/03/24 08:44:18;;;;;;;;;;;;;;;15.93;40.16;102764.00;10476345;28;20028;-74
2022/03/24 08:49:25;;;;;;;59.58;34.15;;;;;;;16.02;39.87;102764.53;10493706;28;19920;-74
2022/03/24 08:54:26;;;;;;;60.15;34.67;;;;;;;16.39;35.99;102761.25;10476647;28;20048;-74
2022/03/24 08:59:28;;;;;;;45.28;32.33;;;;;;;18.76;31.05;102765.72;10493597;28;20111;-74
2022/03/24 09:04:32;;;;;;;58.47;36.17;;;;;;;21.38;28.91;102757.16;10475588;28;20082;-75
2022/03/24 09:09:37;;;;;;;50.05;36.85;;;;;;;22.15;26.88;102768.44;10491030;28;20099;-74
2022/03/24 09:14:43;;;;;;;51.47;38.42;;;;;;;22.68;26.18;102760.22;10474917;28;20051;-74
2022/03/24 09:19:48;;;;;;;49.00;37.43;;;;;;;23.92;25.10;102757.03;10474135;28;20036;-76
2022/03/24 09:24:55;;;;;;;57.53;40.42;;;;;;;25.35;22.59;102757.09;10476228;28;20070;-76
2022/03/24 09:29:57;;;;;;;49.03;38.70;;;;;;;25.28;24.45;102760.53;10478267;28;20029;-77
2022/03/24 09:34:57;;;;;;;53.28;40.03;;;;;;;25.97;21.66;102759.81;10522349;28;20135;-75
2022/03/24 09:40:00;;;;;;;49.33;40.17;;;;;;;26.34;24.27;102757.63;10466710;28;20431;-77
2022/03/24 09:45:04;;;;;;;45.10;37.42;;;;;;;26.55;22.19;102754.25;10481508;28;20101;-77
2022/03/24 09:50:06;;;;;;;50.30;38.97;;;;;;;28.11;19.92;102748.28;10480317;28;20037;-76
2022/03/24 09:55:08;;;;;;;48.00;38.97;;;;;;;28.14;19.85;102749.22;10466455;28;20044;-77
2022/03/24 10:00:10;;;;;;;43.10;38.00;;;;;;;27.16;22.89;102752.19;10480582;28;20031;-77
2022/03/24 10:05:17;;;;;;;39.80;32.47;;;;;;;27.83;17.76;102745.47;10498878;28;20514;-77
2022/03/24 10:10:33;;;;;;;41.72;31.65;;;;;;;28.76;17.85;102740.41;10464781;28;20086;-77
2022/03/24 10:15:37;;;;;;;41.72;34.08;;;;;;;28.45;18.89;102734.97;10481994;28;20025;-77
2022/03/24 10:20:44;;;;;;;47.28;35.20;;;;;;;28.56;19.33;102741.28;10465282;28;20039;-77
2022/03/24 10:25:46;;;;;;;32.35;25.17;;;;;;;28.14;17.90;102741.16;10481459;28;20492;-77
2022/03/24 10:30:52;;;;;;;34.45;27.02;;;;;;;28.65;17.29;102740.38;10498221;28;20113;-77
2022/03/24 10:36:15;;;;;;;27.85;18.13;;;;;;;28.34;15.33;102736.72;10476590;28;20271;-77
2022/03/24 10:41:27;;;;;;;31.45;25.10;;;;;;;28.13;15.85;102736.66;10481339;28;20395;-77
2022/03/24 10:46:34;;;;;;;26.40;19.13;;;;;;;27.91;17.43;102737.44;10495250;28;20044;-77
2022/03/24 10:51:37;;;;;;;23.42;18.00;;;;;;;27.85;17.83;102732.94;10480261;28;20499;-77
2022/03/24 10:56:50;;;;;;;27.90;16.92;;;;;;;26.91;17.65;102734.06;10462186;28;20036;-77
2022/03/24 11:01:54;;;;;;;22.90;16.33;;;;;;;27.25;17.79;102726.25;10464772;28;20036;-77
2022/03/24 11:07:00;;;;;;;26.88;21.33;;;;;;;27.87;17.46;102716.78;10477178;28;20036;-77
2022/03/24 11:12:25;;;;;;;29.38;20.20;;;;;;;27.31;18.94;102722.72;10497167;28;20372;-76
2022/03/24 11:17:32;;;;;;;40.13;26.38;;;;;;;26.99;17.79;102726.06;10496721;28;20361;-76
2022/03/24 11:22:50;;;;;;;30.83;22.25;;;;;;;27.47;17.68;102712.09;10461356;28;20056;-77
2022/03/24 11:27:53;;;;;;;27.67;20.50;;;;;;;28.28;17.10;102708.91;10494425;28;20040;-77
2022/03/24 11:32:59;;;;;;;34.58;23.85;;;;;;;28.14;15.42;102707.97;10478260;28;20103;-77
2022/03/24 11:38:03;;;;;;;35.47;25.13;;;;;;;28.80;15.88;102699.13;10489922;28;20032;-77
2022/03/24 11:43:14;;;;;;;36.92;24.00;;;;;;;28.41;16.50;102701.72;10445301;28;20056;-77
2022/03/24 11:48:16;;;;;;;34.80;25.80;;;;;;;28.35;17.23;102692.75;10459802;28;20045;-77
2022/03/24 11:53:34;;;;;;;31.73;26.17;;;;;;;28.13;16.60;102685.53;10461060;28;20117;-77
2022/03/24 11:58:41;;;;;;;32.78;26.35;;;;;;;27.05;18.24;102699.25;10495738;28;20044;-76
2022/03/24 12:04:03;;;;;;;30.60;26.67;;;;;;;27.53;15.26;102680.78;10494224;28;20467;-76
2022/03/24 12:09:04;;;;;;;29.65;25.20;;;;;;;27.46;15.39;102673.53;10494518;28;20033;-77
2022/03/24 12:14:07;;;;;;;38.00;27.00;;;;;;;25.63;16.57;102667.31;10476765;28;20024;-77
2022/03/24 12:19:41;;;;;;;33.22;26.25;;;;;;;26.26;18.26;102674.31;10476826;28;20524;-76
2022/03/24 12:24:41;;;;;;;34.53;24.95;;;;;;;26.78;15.38;102660.50;10478114;28;20033;-78
2022/03/24 12:29:42;;;;;;;32.07;25.90;;;;;;;26.66;18.58;102663.97;10461597;28;20478;-76
2022/03/24 12:34:44;;;;;;;29.60;22.07;;;;;;;27.50;16.01;102653.88;10459250;28;20068;-77
2022/03/24 12:39:45;;;;;;;34.60;25.35;;;;;;;27.01;17.17;102650.84;10476191;28;20041;-77
2022/03/24 12:44:58;;;;;;;30.43;25.27;;;;;;;26.27;17.55;102659.16;10495084;28;20536;-76
2022/03/24 12:49:59;;;;;;;37.72;26.38;;;;;;;26.51;15.93;102650.41;10461331;28;20064;-77
2022/03/24 12:54:59;;;;;;;34.70;27.93;;;;;;;25.87;17.10;102641.69;10475860;28;20041;-76
2022/03/24 13:00:00;;;;;;;32.07;24.57;;;;;;;24.90;16.84;102639.41;10500461;28;20051;-76
2022/03/24 13:05:00;;;;;;;26.63;22.20;;;;;;;24.64;19.30;102642.53;10465500;28;20035;-76
2022/03/24 13:10:06;;;;;;;33.47;24.37;;;;;;;25.14;19.36;102640.66;10467070;28;20071;-76
2022/03/24 13:15:07;;;;;;;35.72;26.30;;;;;;;26.82;16.15;102631.88;10484050;28;20032;-77
2022/03/24 13:20:08;;;;;;;25.42;19.23;;;;;;;26.70;16.03;102627.31;10483531;28;20032;-77
2022/03/24 13:25:10;;;;;;;30.17;24.07;;;;;;;26.65;16.70;102629.06;10482378;28;20094;-77
2022/03/24 13:30:12;;;;;;;;;;;;;;;27.06;16.76;102624.91;10483670;28;20068;-77
2022/03/24 13:35:15;;;;;;;30.13;20.80;;;;;;;25.97;16.16;102623.03;10482566;28;19935;-75
2022/03/24 13:40:26;;;;;;;31.50;25.23;;;;;;;24.36;17.22;102618.84;10466209;28;20094;-76
2022/03/24 13:45:33;;;;;;;38.77;29.17;;;;;;;23.66;19.78;102613.00;10482353;28;20124;-76
2022/03/24 13:50:35;;;;;;;37.17;28.45;;;;;;;24.77;18.20;102607.97;10466350;28;20335;-76
2022/03/24 13:55:35;;;;;;;35.75;27.08;;;;;;;24.52;17.92;102602.19;10501000;28;20026;-76
2022/03/24 14:00:49;;;;;;;32.60;24.37;;;;;;;25.35;19.44;102604.34;10490405;28;20127;-76
2022/03/24 14:05:49;;;;;;;37.25;29.27;;;;;;;25.21;20.16;102604.19;10470344;28;20120;-76
2022/03/24 14:10:51;;;;;;;38.57;28.03;;;;;;;25.34;19.52;102587.38;10497379;28;20472;-76
2022/03/24 14:15:51;;;;;;;;;;;;;;;25.66;17.82;102596.72;10468523;28;20107;-76
2022/03/24 14:20:52;;;;;;;37.65;25.92;;;;;;;23.97;19.27;102589.56;10464489;28;20279;-75
2022/03/24 14:25:53;;;;;;;30.47;25.13;;;;;;;23.84;20.17;102590.19;10481424;28;20031;-79
2022/03/24 14:30:53;;;;;;;39.77;27.20;;;;;;;22.94;19.31;102583.81;10478825;28;20033;-78
2022/03/24 14:35:57;;;;;;;38.33;26.37;;;;;;;24.74;18.74;102578.47;10494760;28;20028;-76
2022/03/24 14:40:58;;;;;;;34.38;24.60;;;;;;;24.51;18.34;102581.63;10484845;28;20036;-76
2022/03/24 14:45:59;;;;;;;36.70;27.42;;;;;;;23.73;18.29;102569.50;10495005;28;20135;-77
2022/03/24 14:50:59;;;;;;;31.40;25.17;;;;;;;23.25;19.50;102572.94;10502071;28;20388;-77
2022/03/24 14:56:00;;;;;;;49.00;26.93;;;;;;;23.29;20.21;102575.75;10490832;28;20025;-76
2022/03/24 15:01:01;;;;;;;32.57;24.30;;;;;;;23.42;19.34;102566.22;10477439;28;20102;-76
2022/03/24 15:06:03;;;;;;;40.63;27.00;;;;;;;23.79;20.41;102567.81;10475494;28;20032;-76
2022/03/24 15:11:03;;;;;;;;;;;;;;;22.48;20.30;102564.03;10466481;28;20116;-76
2022/03/24 15:16:05;;;;;;;38.60;25.43;;;;;;;21.99;21.26;102572.50;10454809;28;20011;-75
2022/03/24 15:21:05;;;;;;;33.72;23.50;;;;;;;22.57;21.21;102562.47;10439504;28;20286;-76
2022/03/24 15:26:06;;;;;;;37.85;25.33;;;;;;;22.65;20.17;102549.34;10493134;28;20344;-76
2022/03/24 15:31:06;;;;;;;33.75;26.25;;;;;;;21.98;21.78;102550.25;10504065;28;20036;-77
2022/03/24 15:36:07;;;;;;;35.17;23.45;;;;;;;21.53;21.75;102549.00;10495824;28;20579;-76
2022/03/24 15:41:08;;;;;;;34.20;27.17;;;;;;;20.67;23.51;102556.13;10474316;28;20089;-76
2022/03/24 15:46:09;;;;;;;39.25;26.60;;;;;;;19.32;23.12;102558.41;10478862;28;20049;-77
2022/03/24 15:51:10;;;;;;;39.72;27.15;;;;;;;18.56;24.22;102558.94;10461049;28;20031;-77
2022/03/24 15:56:10;;;;;;;34.95;25.38;;;;;;;18.30;25.89;102564.03;10460292;28;20037;-77
2022/03/24 16:01:11;;;;;;;36.83;24.83;;;;;;;17.76;27.49;102566.94;10457983;28;20020;-76
2022/03/24 16:06:12;;;;;;;37.10;24.20;;;;;;;17.49;26.52;102571.88;10491873;28;20063;-76
2022/03/24 16:11:13;;;;;;;36.30;24.08;;;;;;;17.05;26.53;102566.28;10446228;28;20127;-79
2022/03/24 16:16:13;;;;;;;42.28;28.38;;;;;;;16.75;26.97;102564.84;10476312;28;20103;-79
2022/03/24 16:21:14;;;;;;;40.60;25.35;;;;;;;16.41;29.27;102563.16;10457107;28;20047;-78
2022/03/24 16:26:14;;;;;;;46.10;27.77;;;;;;;16.10;28.68;102573.06;10473702;28;20103;-78
2022/03/24 16:31:15;;;;;;;40.53;28.05;;;;;;;15.90;29.32;102566.75;10500035;28;20040;-77
2022/03/24 16:36:16;;;;;;;39.83;26.63;;;;;;;15.57;30.71;102564.06;10461656;28;20460;-81
2022/03/24 16:41:16;;;;;;;38.75;26.25;;;;;;;15.48;30.93;102574.13;10482971;28;20170;-78
2022/03/24 16:46:17;;;;;;;36.40;25.85;;;;;;;15.27;31.83;102575.66;10502883;28;20122;-78
2022/03/24 16:51:17;;;;;;;35.80;24.92;;;;;;;15.04;33.00;102579.66;10466658;28;20556;-78
2022/03/24 16:56:18;;;;;;;36.38;24.00;;;;;;;14.70;33.32;102582.06;10464422;28;20040;-78
2022/03/24 17:01:21;;;;;;;39.75;27.23;;;;;;;14.34;33.17;102583.50;10461366;28;20504;-78
2022/03/24 17:06:22;;;;;;;37.08;24.48;;;;;;;13.89;35.54;102585.16;10476111;28;20514;-78
2022/03/24 17:11:22;;;;;;;40.20;24.55;;;;;;;13.30;38.81;102586.72;10457734;28;20060;-78
2022/03/24 17:16:23;;;;;;;37.97;24.35;;;;;;;12.74;39.06;102591.03;10488958;28;20063;-78
2022/03/24 17:21:23;;;;;;;43.47;25.42;;;;;;;12.22;40.40;102597.19;10437235;28;20029;-78
2022/03/24 17:26:24;;;;;;;38.83;23.65;;;;;;;11.77;42.40;102598.41;10464028;28;20063;-78
2022/03/24 17:31:24;;;;;;;41.90;24.85;;;;;;;11.35;43.59;102606.84;10458816;28;20403;-77
2022/03/24 17:36:25;;;;;;;57.15;29.38;;;;;;;10.92;46.41;102612.50;10445981;28;20397;-77
2022/03/24 17:41:26;;;;;;;52.53;26.48;;;;;;;10.54;45.30;102619.28;10471456;28;20472;-77
2022/03/24 17:46:26;;;;;;;54.40;27.65;;;;;;;10.26;44.77;102613.63;10432471;28;20050;-77
2022/03/24 17:51:27;;;;;;;53.40;25.83;;;;;;;9.94;46.51;102615.56;10482099;28;20545;-77
2022/03/24 17:56:27;;;;;;;42.22;22.80;;;;;;;9.64;46.59;102617.56;10483306;28;20071;-76
2022/03/24 18:01:30;;;;;;;42.47;23.90;;;;;;;9.32;47.10;102628.06;10458282;28;20043;-76
2022/03/24 18:06:31;;;;;;;37.53;23.17;;;;;;;9.04;48.25;102628.44;10468605;28;20114;-78
2022/03/24 18:11:31;;;;;;;45.15;24.15;;;;;;;8.80;48.20;102631.75;10490765;28;20611;-78
2022/03/24 18:16:32;;;;;;;37.03;22.35;;;;;;;8.65;48.79;102634.00;10495783;28;20468;-78
2022/03/24 18:21:32;;;;;;;47.47;24.70;;;;;;;8.55;49.46;102636.63;10461099;28;20051;-78
2022/03/24 18:26:34;;;;;;;39.35;21.83;;;;;;;8.43;49.54;102636.44;10462694;28;20070;-75
2022/03/24 18:31:35;;;;;;;41.45;23.15;;;;;;;8.26;50.37;102637.63;10461324;28;20528;-77
2022/03/24 18:36:35;;;;;;;42.90;23.45;;;;;;;8.05;52.10;102645.44;10477709;28;20025;-75
2022/03/24 18:41:36;;;;;;;38.35;22.25;;;;;;;7.93;52.58;102647.88;10479792;28;20024;-78
2022/03/24 18:46:37;;;;;;;42.35;24.25;;;;;;;7.81;54.20;102644.22;10478737;28;20048;-78
2022/03/24 18:51:38;;;;;;;38.20;23.60;;;;;;;7.70;52.67;102645.91;10463301;28;20097;-78
2022/03/24 18:56:38;;;;;;;44.65;24.55;;;;;;;7.55;52.73;102653.25;10496479;28;20067;-77
2022/03/24 19:01:39;;;;;;;46.60;24.85;;;;;;;7.38;53.76;102653.44;10460542;28;20472;-77
2022/03/24 19:06:39;;;;;;;40.40;24.67;;;;;;;7.18;54.10;102652.56;10478261;28;20052;-78
2022/03/24 19:11:40;;;;;;;48.90;28.73;;;;;;;6.99;55.55;102653.50;10476707;28;20119;-77
2022/03/24 19:16:40;;;;;;;44.22;26.13;;;;;;;6.75;54.95;102647.00;10462564;28;20556;-78
2022/03/24 19:21:41;;;;;;;42.92;26.58;;;;;;;6.44;56.31;102647.66;10477356;28;20056;-78
2022/03/24 19:26:41;;;;;;;42.10;25.95;;;;;;;6.10;58.35;102649.72;10477752;28;20594;-76
2022/03/24 19:31:42;;;;;;;53.30;28.70;;;;;;;5.85;58.41;102647.34;10460245;28;20063;-78
2022/03/24 19:36:42;;;;;;;39.97;24.55;;;;;;;5.84;60.68;102657.59;10476086;28;20059;-76
2022/03/24 19:41:43;;;;;;;38.08;25.75;;;;;;;5.90;64.10;102662.47;10459584;28;20029;-75
2022/03/24 19:46:44;;;;;;;39.03;24.95;;;;;;;5.82;62.46;102660.03;10492683;28;20075;-77
2022/03/24 19:51:44;;;;;;;43.75;25.20;;;;;;;5.80;61.54;102665.88;10517848;28;20024;-77
2022/03/24 19:56:45;;;;;;;39.97;25.88;;;;;;;5.66;62.58;102672.31;10512592;28;20121;-78
2022/03/24 20:01:45;;;;;;;42.38;25.95;;;;;;;5.52;64.81;102671.91;10476793;28;20416;-78
2022/03/24 20:06:46;;;;;;;41.35;24.00;;;;;;;5.16;64.60;102677.03;10475539;28;20169;-78
2022/03/24 20:11:46;;;;;;;45.17;26.88;;;;;;;4.85;64.61;102670.63;10475884;28;20071;-77
2022/03/24 20:16:47;;;;;;;45.58;28.13;;;;;;;4.68;66.03;102670.63;10493352;28;20110;-78
2022/03/24 20:21:47;;;;;;;50.78;30.25;;;;;;;4.60;65.85;102679.31;10475098;28;20119;-76
2022/03/24 20:26:48;;;;;;;39.28;26.33;;;;;;;4.54;65.71;102679.59;10493158;28;20060;-76
2022/03/24 20:31:48;;;;;;;47.00;27.02;;;;;;;4.49;66.22;102685.97;10476216;28;20117;-77
2022/03/24 20:36:49;;;;;;;43.67;27.05;;;;;;;4.40;66.39;102686.88;10491933;28;20058;-77
2022/03/24 20:41:49;;;;;;;42.15;27.83;;;;;;;4.28;67.35;102692.50;10474678;28;20075;-78
2022/03/24 20:46:51;;;;;;;45.75;25.90;;;;;;;4.07;68.82;102698.22;10491834;28;20052;-77
2022/03/24 20:51:52;;;;;;;44.72;27.73;;;;;;;4.00;69.80;102700.03;10477049;28;20028;-78
2022/03/24 20:56:52;;;;;;;48.55;29.50;;;;;;;4.05;70.08;102716.97;10443784;28;20131;-78
2022/03/24 21:01:53;;;;;;;60.13;34.40;;;;;;;4.01;68.26;102714.81;10475292;28;20122;-78
2022/03/24 21:06:53;;;;;;;58.15;33.35;;;;;;;3.80;67.74;102714.41;10458524;28;20480;-78
2022/03/24 21:11:54;;;;;;;56.58;33.30;;;;;;;3.77;68.64;102702.03;10450495;28;20059;-78
2022/03/24 21:16:55;;;;;;;61.88;35.75;;;;;;;3.73;69.21;102707.66;10452771;28;20056;-78
2022/03/24 21:21:56;;;;;;;44.55;29.13;;;;;;;3.71;69.48;102711.75;10458968;28;20102;-78
2022/03/24 21:26:57;;;;;;;61.28;33.33;;;;;;;3.75;69.96;102705.25;10449394;28;20127;-78
2022/03/24 21:31:57;;;;;;;64.18;32.05;;;;;;;3.73;69.19;102715.41;10465675;28;20032;-78
2022/03/24 21:36:58;;;;;;;59.22;31.38;;;;;;;3.77;69.64;102729.63;10480948;28;20567;-78
2022/03/24 21:41:58;;;;;;;52.20;30.25;;;;;;;3.77;70.06;102725.34;10483672;28;20040;-77
2022/03/24 21:46:59;;;;;;;51.30;31.48;;;;;;;3.70;69.47;102729.75;10498780;28;20068;-77
2022/03/24 21:52:00;;;;;;;52.13;31.55;;;;;;;3.71;69.19;102731.56;10466544;28;20032;-78
2022/03/24 21:57:00;;;;;;;56.10;34.70;;;;;;;3.72;69.32;102725.63;10498225;28;20568;-78
2022/03/24 22:02:01;;;;;;;45.83;29.73;;;;;;;3.69;69.29;102726.22;10465187;28;20031;-78
2022/03/24 22:07:01;;;;;;;57.90;35.47;;;;;;;3.57;70.00;102730.09;10481177;28;20074;-78
2022/03/24 22:12:02;;;;;;;66.63;36.90;;;;;;;3.45;69.48;102730.63;10480178;28;20458;-78
2022/03/24 22:17:03;;;;;;;52.92;36.03;;;;;;;3.41;70.00;102736.22;10482756;28;20043;-78
2022/03/24 22:22:04;;;;;;;56.80;34.50;;;;;;;3.34;71.41;102732.09;10463490;28;20479;-78
2022/03/24 22:27:04;;;;;;;58.17;35.47;;;;;;;3.34;71.58;102744.09;10482087;28;20063;-78
2022/03/24 22:32:05;;;;;;;58.88;35.65;;;;;;;3.30;72.37;102739.34;10479071;28;20033;-78
2022/03/24 22:37:06;;;;;;;58.42;35.53;;;;;;;3.15;73.03;102742.13;10463519;28;20029;-78
2022/03/24 22:42:06;;;;;;;61.92;36.95;;;;;;;3.10;73.44;102745.88;10478810;28;20510;-78
2022/03/24 22:47:07;;;;;;;62.67;37.13;;;;;;;3.17;74.15;102735.44;10480517;28;20083;-78
2022/03/24 22:52:07;;;;;;;68.15;40.28;;;;;;;3.07;74.24;102737.78;10480511;28;20060;-78